Date,TemperatureHighF,TemperatureAvgF,TemperatureLowF,DewpointHighF,DewpointAvgF,DewpointLowF,HumidityHigh,HumidityAvg,HumidityLow,PressureMaxIn,PressureMinIn,WindSpeedMaxMPH,WindSpeedAvgMPH,GustSpeedMaxMPH,PrecipitationSumIn
2013-1-1,33,25,13,24,11,-1,68,56,43,0.00,40.00,0,0,0,3.20
2013-1-2,23,14,4,7,0,-7,66,55,40,0.00,40.00,0,0,0,3.78
2013-1-3,19,12,4,4,-2,-7,66,54,35,0.00,40.00,0,0,0,0.05
2013-1-4,34,24,10,22,14,2,81,66,51,0.00,40.00,0,0,0,1.21
2013-1-5,33,29,20,24,15,9,73,57,40,0.00,40.00,0,0,0,1.26
2013-1-6,35,25,17,23,18,11,81,72,55,0.00,40.00,0,0,0,0.07
2013-1-7,32,26,14,27,15,6,86,66,39,0.00,40.00,0,0,0,0.00
2013-1-8,42,26,12,21,15,6,80,65,39,0.00,40.00,0,0,0,0.00
2013-1-9,39,30,20,28,22,16,85,73,59,0.00,40.00,0,0,0,0.00
2013-1-10,42,37,31,31,22,20,85,55,41,0.00,40.00,0,0,0,5.38
2013-1-11,38,30,22,32,22,18,92,72,45,0.00,40.00,0,0,0,0.09
2013-1-12,39,36,34,36,34,32,94,92,89,0.00,40.00,0,0,0,0.15
2013-1-13,42,38,35,41,36,34,95,93,89,0.00,40.00,0,0,0,0.01
2013-1-14,56,42,37,46,34,21,95,74,49,0.00,40.00,0,0,0,0.02
2013-1-15,37,33,28,25,21,16,83,61,45,0.00,40.00,0,0,0,0.02
2013-1-16,31,29,28,27,24,19,88,80,63,0.00,40.00,0,0,0,0.24
2013-1-17,38,29,20,27,18,-4,90,64,37,0.00,40.00,0,0,0,0.03
2013-1-18,19,14,8,0,-9,-15,55,35,26,0.00,40.00,0,0,0,0.00
2013-1-19,37,26,17,22,12,1,70,55,46,0.00,40.00,0,0,0,0.00
2013-1-20,45,36,24,30,19,-1,72,51,30,0.00,40.00,0,0,0,9.61
2013-1-21,26,20,15,15,1,-4,80,44,28,0.00,40.00,0,0,0,6.59
2013-1-22,20,16,8,15,5,-8,83,64,37,0.00,40.00,0,0,0,0.66
2013-1-23,8,2,-2,-8,-16,-23,60,41,25,0.00,40.00,0,0,0,0.10
2013-1-24,10,3,-4,-11,-16,-19,48,40,28,0.00,40.00,0,0,0,3.07
2013-1-25,18,10,3,-7,-9,-11,55,42,29,0.00,40.00,0,0,0,2.01
2013-1-26,21,14,8,-1,-6,-13,65,42,24,0.00,40.00,0,0,0,0.05
2013-1-27,24,16,10,-2,-5,-11,54,40,27,0.00,40.00,0,0,0,0.27
2013-1-28,24,19,14,18,1,-10,85,50,21,0.00,40.00,0,0,0,0.16
2013-1-29,34,26,15,29,20,10,90,80,64,0.00,40.00,0,0,0,0.11
2013-1-30,53,38,32,52,36,30,98,93,90,0.00,40.00,0,0,0,0.34
2013-1-31,55,39,29,52,1,-100,98,53,35,0.00,40.00,0,0,0,19.32
2013-2-1,28,22,16,16,5,-1,65,48,33,0.00,40.00,0,0,0,8.10
2013-2-2,24,18,12,11,3,-1,66,52,35,0.00,40.00,0,0,0,0.06
2013-2-3,27,23,17,13,11,9,80,61,46,0.00,40.00,0,0,0,0.00
2013-2-4,29,22,17,16,2,-100,78,49,22,0.00,40.00,0,0,0,0.78
2013-2-5,30,17,10,7,-2,-5,58,45,21,0.00,40.00,0,0,0,0.26
2013-2-6,33,24,18,18,-2,-100,82,58,22,0.00,40.00,0,0,0,0.08
2013-2-7,24,16,11,1,-21,-100,46,33,17,0.00,40.00,0,0,0,0.08
2013-2-8,17,14,11,12,2,-100,87,71,28,0.00,40.00,0,0,0,0.00
2013-2-9,20,17,12,17,14,8,90,88,83,0.00,40.00,0,0,0,0.02
2013-2-10,36,20,10,9,-19,-100,82,55,17,0.00,40.00,0,0,0,0.01
2013-2-11,31,21,9,28,16,3,94,83,69,0.00,40.00,0,0,0,0.28
2013-2-12,40,36,29,31,27,23,93,70,55,0.00,40.00,0,0,0,0.06
2013-2-13,42,32,25,23,19,17,75,60,36,0.00,40.00,0,0,0,0.05
2013-2-14,42,30,23,20,18,16,82,64,35,0.00,40.00,0,0,0,0.00
2013-2-15,54,31,21,26,20,16,80,66,27,0.00,40.00,0,0,0,0.00
2013-2-16,37,32,28,28,17,-100,85,63,45,0.00,40.00,0,0,0,0.00
2013-2-17,28,20,14,14,6,-1,81,56,32,0.00,40.00,0,0,0,12.52
2013-2-18,27,17,9,0,-4,-10,59,42,23,0.00,40.00,0,0,0,48.68
2013-2-19,43,30,19,35,4,-100,92,42,18,0.00,40.00,0,0,0,0.09
2013-2-20,35,30,22,33,20,11,94,68,49,0.00,40.00,0,0,0,1.29
2013-2-21,26,22,17,13,8,3,69,56,44,0.00,40.00,0,0,0,0.65
2013-2-22,41,28,14,21,15,9,83,60,31,0.00,40.00,0,0,0,0.30
2013-2-23,36,32,29,32,27,21,92,80,67,0.00,40.00,0,0,0,0.11
2013-2-24,33,31,29,30,29,26,92,90,86,0.00,40.00,0,0,0,0.47
2013-2-25,39,32,26,32,28,23,92,86,70,0.00,40.00,0,0,0,0.09
2013-2-26,40,35,31,31,30,26,92,81,66,0.00,40.00,0,0,0,0.11
2013-2-27,35,32,31,32,30,27,95,90,80,0.00,40.00,0,0,0,0.70
2013-2-28,44,35,31,35,31,29,94,87,64,0.00,40.00,0,0,0,0.12
2013-3-1,38,35,30,32,29,26,91,79,66,0.00,40.00,0,0,0,0.01
2013-3-2,41,33,29,28,25,23,88,73,53,0.00,40.00,0,0,0,0.02
2013-3-3,40,33,29,27,26,22,89,76,58,0.00,40.00,0,0,0,0.07
2013-3-4,33,29,26,23,20,18,77,68,56,0.00,40.00,0,0,0,0.03
2013-3-5,43,34,27,29,24,19,85,67,48,0.00,40.00,0,0,0,0.03
2013-3-6,37,34,31,31,28,24,90,78,61,0.00,40.00,0,0,0,0.04
2013-3-7,34,31,30,27,24,21,83,73,62,0.00,40.00,0,0,0,0.96
2013-3-8,47,37,29,25,18,10,85,51,23,0.00,40.00,0,0,0,0.45
2013-3-9,63,39,24,26,14,0,76,44,8,0.00,40.00,0,0,0,0.33
2013-3-10,54,36,23,29,24,19,85,65,26,0.00,40.00,0,0,0,0.00
2013-3-11,50,40,31,35,28,24,88,65,36,0.00,40.00,0,0,0,0.00
2013-3-12,49,44,39,46,41,32,95,89,76,0.00,40.00,0,0,0,0.49
2013-3-13,48,41,32,46,32,24,96,70,39,0.00,40.00,0,0,0,0.29
2013-3-14,35,30,18,25,16,-1,86,58,39,0.00,40.00,0,0,0,0.93
2013-3-15,40,25,16,28,8,-2,89,51,23,0.00,40.00,0,0,0,0.99
2013-3-16,31,27,23,21,12,4,77,56,34,0.00,40.00,0,0,0,0.03
2013-3-17,31,23,18,11,3,-9,71,45,18,0.00,40.00,0,0,0,0.51
2013-3-18,37,24,9,16,0,-13,72,39,11,0.00,40.00,0,0,0,0.48
2013-3-19,31,28,24,28,25,19,91,87,61,0.00,40.00,0,0,0,0.48
2013-3-20,35,28,23,23,19,14,89,69,47,0.00,40.00,0,0,0,0.07
2013-3-21,49,30,16,15,12,6,78,50,18,0.00,40.00,0,0,0,0.01
2013-3-22,39,28,21,21,14,9,75,58,30,0.00,40.00,0,0,0,0.00
2013-3-23,40,31,24,21,18,14,70,57,37,0.00,40.00,0,0,0,1.50
2013-3-24,48,36,30,22,20,18,68,53,31,0.00,40.00,0,0,0,0.42
2013-3-25,43,33,22,28,23,17,83,66,46,0.00,40.00,0,0,0,0.00
2013-3-26,51,40,30,26,18,13,72,45,23,0.00,40.00,0,0,0,0.03
2013-3-27,48,38,31,32,23,20,77,57,34,0.00,40.00,0,0,0,0.00
2013-3-28,47,39,33,34,31,29,93,74,51,0.00,40.00,0,0,0,0.02
2013-3-29,53,44,37,33,30,27,74,60,36,0.00,40.00,0,0,0,0.01
2013-3-30,58,44,35,30,21,7,72,46,13,0.00,40.00,0,0,0,0.00
2013-3-31,59,41,27,36,19,-100,79,49,18,0.00,40.00,0,0,0,0.01
2013-4-1,56,42,32,40,33,10,92,73,36,0.00,40.00,0,0,0,0.93
2013-4-2,35,31,26,10,6,3,42,36,26,0.00,40.00,0,0,0,1.30
2013-4-3,44,33,26,11,6,1,46,34,16,0.00,40.00,0,0,0,0.63
2013-4-4,58,42,30,15,8,0,50,27,13,0.00,40.00,0,0,0,0.09
2013-4-5,58,45,36,25,19,13,57,38,17,0.00,40.00,0,0,0,0.03
2013-4-6,44,33,25,16,1,-7,46,27,13,0.00,40.00,0,0,0,1.30
2013-4-7,57,41,28,30,18,9,61,42,19,0.00,40.00,0,0,0,0.04
2013-4-8,66,50,38,36,32,25,86,53,23,0.00,40.00,0,0,0,0.00
2013-4-9,58,45,42,41,38,33,92,79,48,0.00,40.00,0,0,0,0.33
2013-4-10,58,48,42,45,42,39,94,80,56,0.00,40.00,0,-208,0,0.64
2013-4-11,48,44,42,44,31,13,94,64,30,0.00,40.00,0,-381,0,0.30
2013-4-12,41,34,32,31,23,12,92,67,32,0.00,40.00,0,-292,0,0.49
2013-4-13,57,40,33,38,32,30,91,74,38,0.00,40.00,0,-372,0,0.06
2013-4-14,47,42,38,40,34,29,91,74,50,0.00,40.00,0,-394,0,0.02
2013-4-15,64,45,31,33,28,21,88,57,22,0.00,40.00,0,-315,0,0.01
2013-4-16,64,51,38,51,39,29,84,65,37,0.00,40.00,0,-477,0,0.06
2013-4-17,64,53,44,50,31,23,83,47,21,0.00,40.00,0,-509,0,0.07
2013-4-18,64,48,34,34,28,16,84,49,26,0.00,40.00,0,-330,0,0.05
2013-4-19,71,60,50,59,50,28,87,72,38,0.00,40.00,0,-333,0,0.01
2013-4-20,64,50,41,60,33,17,91,57,26,0.00,40.00,0,-411,0,0.69
2013-4-21,57,42,35,25,16,10,61,35,16,0.00,40.00,0,-330,0,0.39
2013-4-22,59,44,32,30,20,11,78,44,15,0.00,40.00,0,-309,0,0.00
2013-4-23,41,38,34,39,33,28,92,82,71,0.00,40.00,0,-256,0,0.00
2013-4-24,81,56,41,48,42,38,92,66,25,0.00,40.00,0,-250,0,0.00
2013-4-25,65,55,44,49,31,18,73,44,19,0.00,40.00,0,-361,0,0.54
2013-4-26,61,49,35,32,28,21,82,48,24,0.00,40.00,0,-423,0,0.47
2013-4-27,72,52,37,37,30,20,85,51,14,0.00,40.00,0,-314,0,0.00
2013-4-28,70,53,38,38,32,-100,84,52,20,0.00,40.00,0,-288,0,0.00
2013-4-29,74,56,42,40,36,31,84,51,23,0.00,40.00,0,-436,0,0.00
2013-4-30,78,58,46,41,32,22,82,44,14,0.00,40.00,0,-504,0,0.00
2013-5-1,82,60,41,37,29,20,74,39,10,0.00,40.00,0,-391,0,0.00
2013-5-2,79,56,44,41,35,21,79,49,18,0.00,40.00,0,-285,0,0.00
2013-5-3,74,54,39,43,37,33,83,57,28,0.00,40.00,0,-477,0,0.00
2013-5-4,78,56,46,43,36,21,89,54,12,0.00,40.00,0,-510,0,0.00
2013-5-5,75,52,37,38,34,29,85,56,21,0.00,40.00,0,-361,0,0.00
2013-5-6,83,55,40,44,37,25,84,56,12,0.00,40.00,0,-336,0,0.00
2013-5-7,86,62,45,55,45,31,88,61,15,0.00,40.00,0,-315,0,0.00
2013-5-8,80,65,55,60,54,51,91,71,39,0.00,40.00,0,-273,0,0.11
2013-5-9,65,60,57,59,56,54,94,89,75,0.00,40.00,0,-272,0,0.43
2013-5-10,80,64,57,56,51,-100,94,72,33,0.00,40.00,0,-400,0,0.01
2013-5-11,68,62,58,62,58,54,93,85,70,0.00,40.00,0,-433,0,0.35
2013-5-12,69,59,51,59,45,-100,96,67,34,0.00,40.00,0,-321,0,0.14
2013-5-13,55,48,43,30,25,23,52,41,29,0.00,40.00,0,-288,0,0.01
2013-5-14,64,50,42,34,16,-100,71,43,19,0.00,40.00,0,-392,0,0.01
2013-5-15,67,54,38,50,22,-100,90,60,21,0.00,40.00,0,-361,0,0.11
2013-5-16,79,60,51,51,18,-100,94,58,16,0.00,40.00,0,-245,0,0.03
2013-5-17,71,56,49,41,21,-100,63,48,21,0.00,40.00,0,-442,0,0.01
2013-5-18,76,58,46,45,32,-100,85,57,18,0.00,40.00,0,-184,0,0.00
2013-5-19,64,55,50,51,47,44,89,74,59,0.00,40.00,0,-354,0,0.12
2013-5-20,74,62,53,59,55,51,93,80,57,0.00,40.00,0,-210,0,0.33
2013-5-21,62,57,51,56,52,48,89,86,78,0.00,40.00,0,-233,0,0.30
2013-5-22,62,55,51,54,51,49,93,87,73,0.00,40.00,0,-348,0,0.78
2013-5-23,68,60,52,65,56,49,93,88,72,0.00,40.00,0,-398,0,0.09
2013-5-24,71,62,51,64,57,46,94,84,64,0.00,40.00,0,-354,0,0.51
2013-5-25,51,48,41,48,45,36,92,88,77,0.00,40.00,0,-423,0,1.12
2013-5-26,58,47,39,39,37,34,91,69,43,0.00,40.00,0,-403,0,0.28
2013-5-27,73,57,42,40,33,26,83,47,17,0.00,40.00,0,-458,0,0.01
2013-5-28,77,59,42,43,37,31,87,52,20,0.00,40.00,0,-386,0,0.00
2013-5-29,59,56,53,55,44,-100,94,79,58,0.00,40.00,0,-500,0,0.23
2013-5-30,91,71,57,64,59,55,96,71,30,0.00,40.00,0,-348,0,0.11
2013-5-31,97,77,61,63,60,54,91,61,25,0.00,40.00,0,-345,0,0.01
2013-6-1,97,79,65,67,62,58,87,60,28,0.00,40.00,0,-175,0,0.00
2013-6-2,94,77,67,68,64,-100,95,70,31,0.00,40.00,0,-309,0,0.51
2013-6-3,86,71,64,65,58,44,95,67,26,0.00,40.00,0,-392,0,0.42
2013-6-4,72,61,54,49,41,36,66,48,27,0.00,40.00,0,-541,0,0.01
2013-6-5,79,62,53,49,36,-100,74,50,16,0.00,40.00,0,-415,0,0.00
2013-6-6,76,65,56,51,37,-100,74,49,28,0.00,40.00,0,-561,0,0.00
2013-6-7,61,55,51,53,50,44,92,82,63,0.00,40.00,0,-380,0,0.55
2013-6-8,73,60,52,58,53,49,93,79,56,0.00,40.00,0,-255,0,1.06
2013-6-9,82,66,56,55,53,48,89,65,31,0.00,40.00,0,-441,0,0.02
2013-6-10,71,65,56,57,55,52,88,71,54,0.00,40.00,0,-345,0,0.07
2013-6-11,61,57,54,56,54,51,92,87,76,0.00,40.00,0,-347,0,0.85
2013-6-12,68,61,56,54,52,50,92,74,54,0.00,40.00,0,-292,0,0.18
2013-6-13,70,60,53,56,50,-100,91,74,42,0.00,40.00,0,-229,0,0.08
2013-6-14,79,64,56,56,38,-100,92,71,29,0.00,40.00,0,-284,0,0.01
2013-6-15,79,65,56,54,35,-100,81,54,21,0.00,40.00,0,-360,0,0.00
2013-6-16,76,66,53,57,46,-100,88,61,34,0.00,40.00,0,-423,0,0.00
2013-6-17,81,66,59,62,57,53,89,74,38,0.00,40.00,0,-227,0,0.01
2013-6-18,64,61,57,56,55,52,88,79,64,0.00,40.00,0,-353,0,0.06
2013-6-19,79,62,53,54,26,-100,91,65,24,0.00,40.00,0,-545,0,0.01
2013-6-20,78,66,52,48,15,-100,85,51,27,0.00,40.00,0,-69,0,0.00
2013-6-22,82,75,68,68,59,-100,91,72,47,0.00,40.00,0,-777,0,0.05
2013-6-23,87,70,66,73,67,64,96,89,53,0.00,40.00,0,-361,0,1.46
2013-6-24,94,73,66,69,65,-100,97,84,39,0.00,40.00,0,-318,0,1.32
2013-6-25,93,76,68,70,66,64,94,75,39,0.00,40.00,0,-409,0,0.08
2013-6-26,78,70,63,69,66,60,95,87,68,0.00,40.00,0,-490,0,0.30
2013-6-27,73,66,60,65,61,57,93,85,75,0.00,40.00,0,-370,0,0.07
2013-6-28,66,61,57,63,59,55,95,92,86,0.00,40.00,0,-417,0,1.69
2013-6-29,87,72,64,69,65,63,96,81,47,0.00,40.00,0,-231,0,1.30
2013-6-30,87,74,68,69,67,64,95,80,50,0.00,40.00,0,-438,0,0.91
2013-7-1,78,73,68,72,69,66,95,88,75,0.00,40.00,0,-307,0,0.89
2013-7-2,74,67,61,70,64,58,94,90,84,0.00,40.00,0,-454,0,0.46
2013-7-3,91,73,61,72,65,59,94,78,49,0.00,40.00,0,-439,0,0.31
2013-7-4,94,79,71,73,70,67,92,75,42,0.00,40.00,0,-430,0,0.01
2013-7-5,95,80,72,72,70,67,91,72,43,0.00,40.00,0,-261,0,0.01
2013-7-6,91,80,74,71,68,63,83,68,42,0.00,40.00,0,-250,0,0.00
2013-7-7,89,78,69,73,66,61,92,70,39,0.00,40.00,0,-544,0,0.08
2013-7-8,81,75,66,73,69,62,94,84,64,0.00,40.00,0,-197,0,0.27
2013-7-9,76,70,65,66,64,62,93,83,66,0.00,40.00,0,-417,0,0.27
2013-7-10,74,68,67,69,63,-100,93,86,78,0.00,40.00,0,-367,0,0.37
2013-7-11,83,75,70,71,68,59,95,80,54,0.00,40.00,0,-420,0,0.36
2013-7-12,84,72,65,60,50,-100,72,60,35,0.00,40.00,0,-233,0,0.01
2013-7-13,84,74,64,66,54,-100,86,67,44,0.00,40.00,0,-368,0,0.00
2013-7-14,88,77,70,71,68,65,90,74,47,0.00,40.00,0,-388,0,0.00
2013-7-15,94,80,71,70,57,-100,90,67,37,0.00,40.00,0,-447,0,0.00
2013-7-16,93,80,71,72,63,-100,84,65,38,0.00,40.00,0,-482,0,0.00
2013-7-17,97,83,72,72,62,-100,93,65,38,0.00,40.00,0,-346,0,0.22
2013-7-18,96,78,72,72,70,63,94,77,37,0.00,40.00,0,-171,0,0.40
2013-7-19,97,85,72,72,70,66,93,63,40,0.00,40.00,0,-243,0,0.08
2013-7-20,90,80,70,72,66,64,90,65,43,0.00,40.00,0,-406,0,0.05
2013-7-21,80,74,67,65,62,58,89,67,47,0.00,40.00,0,-345,0,0.00
2013-7-22,74,69,66,67,64,61,89,82,75,0.00,40.00,0,-280,0,0.25
2013-7-23,74,67,62,67,63,60,93,88,78,0.00,40.00,0,-406,0,2.28
2013-7-24,80,71,62,67,61,49,93,73,45,0.00,40.00,0,-375,0,0.01
2013-7-25,76,66,56,59,52,46,79,62,42,0.00,40.00,0,-609,0,0.01
2013-7-26,73,67,63,65,60,57,93,80,63,0.00,40.00,0,-301,0,0.15
2013-7-27,86,73,63,65,51,-100,87,65,32,0.00,40.00,0,-438,0,0.05
2013-7-28,80,71,65,65,64,61,88,78,57,0.00,40.00,0,-293,0,0.01
2013-7-29,81,69,66,65,64,62,94,84,52,0.00,40.00,0,-333,0,1.29
2013-7-30,81,68,62,63,44,-100,94,73,31,0.00,40.00,0,-333,0,0.13
2013-7-31,84,71,60,61,30,-100,88,61,27,0.00,40.00,0,-468,0,0.00
2013-8-1,84,71,64,65,61,54,90,74,36,0.00,40.00,0,-348,0,0.24
2013-8-2,85,70,64,64,59,-100,93,75,30,0.00,40.00,0,-387,0,0.58
2013-8-3,80,70,63,61,53,-100,87,65,40,0.00,40.00,0,-460,0,0.12
2013-8-4,77,68,60,56,49,-100,82,60,43,0.00,40.00,0,-408,0,0.01
2013-8-5,75,64,59,52,41,-100,76,55,24,0.00,40.00,0,-421,0,0.01
2013-8-6,80,70,54,51,4,-100,85,46,27,0.00,40.00,0,-200,0,0.00
2013-8-7,83,73,62,57,50,-100,76,52,31,0.00,40.00,0,-359,0,0.00
2013-8-8,84,71,63,67,62,54,86,74,56,0.00,40.00,0,-409,0,0.08
2013-8-9,74,72,70,71,69,67,94,89,81,0.00,40.00,0,-427,0,0.97
2013-8-10,81,71,63,67,25,-100,94,62,26,0.00,40.00,0,-337,0,0.01
2013-8-11,80,65,56,58,52,47,86,64,32,0.00,40.00,0,-531,0,0.00
2013-8-12,82,71,60,61,47,-100,87,62,33,0.00,40.00,0,-333,0,0.00
2013-8-13,72,67,62,65,60,-100,93,82,70,0.00,40.00,0,-338,0,0.67
2013-8-14,74,66,62,64,52,-100,89,66,41,0.00,40.00,0,-292,0,0.08
2013-8-15,76,62,56,55,37,-100,78,55,37,0.00,40.00,0,-250,0,0.00
2013-8-16,80,66,57,58,45,-100,88,64,31,0.00,40.00,0,-480,0,0.00
2013-8-17,82,71,59,58,42,-100,87,59,32,0.00,40.00,0,-380,0,0.00
2013-8-18,79,72,60,62,58,56,87,64,48,0.00,40.00,0,-461,0,0.00
2013-8-19,86,71,61,61,52,-100,88,65,36,0.00,40.00,0,-295,0,0.00
2013-8-20,88,72,64,65,58,-100,87,68,33,0.00,40.00,0,-424,0,0.00
2013-8-21,90,73,63,67,62,58,89,71,36,0.00,40.00,0,-333,0,0.00
2013-8-22,90,77,65,67,63,58,88,64,34,0.00,40.00,0,-333,0,0.00
2013-8-23,78,72,61,64,41,-100,72,54,29,0.00,40.00,0,-319,0,0.00
2013-8-24,81,67,53,56,27,-100,80,54,22,0.00,40.00,0,-143,0,0.00
2013-8-25,84,72,56,57,39,-100,88,50,31,0.00,40.00,0,-204,0,0.00
2013-8-26,79,70,63,67,63,59,91,78,58,0.00,40.00,0,-314,0,0.12
2013-8-27,86,76,68,66,63,60,91,69,44,0.00,40.00,0,-547,0,0.06
2013-8-28,86,77,68,66,65,64,91,70,50,0.00,40.00,0,-300,0,0.22
2013-8-29,68,66,63,65,61,59,91,86,75,0.00,40.00,0,-516,0,0.29
2013-8-30,86,71,63,67,62,59,92,76,47,0.00,40.00,0,-280,0,0.01
2013-8-31,82,75,69,71,67,64,92,78,60,0.00,40.00,0,-278,0,0.02
2013-9-1,83,75,71,71,66,-100,90,75,57,0.00,40.00,0,-387,0,0.02
2013-9-2,74,70,68,69,68,66,93,90,83,0.00,40.00,0,-368,0,0.76
2013-9-3,76,70,67,66,63,58,93,79,63,0.00,40.00,0,-461,0,0.01
2013-9-4,82,69,62,59,55,49,80,64,33,0.00,40.00,0,-260,0,0.00
2013-9-5,70,63,54,61,26,-100,89,61,25,0.00,40.00,0,-256,0,0.04
2013-9-6,72,58,48,45,31,-100,77,51,28,0.00,40.00,0,-296,0,0.01
2013-9-7,76,70,63,51,36,-100,58,45,32,0.00,40.00,0,-225,0,0.00
2013-9-8,66,61,53,56,31,-100,80,54,37,0.00,40.00,0,-317,0,0.02
2013-9-9,72,58,47,48,42,36,83,57,31,0.00,40.00,0,-346,0,0.01
2013-9-10,71,64,56,64,57,47,91,80,65,0.00,40.00,0,-222,0,0.08
2013-9-11,94,80,67,73,69,64,93,71,44,0.00,40.00,0,-348,0,0.50
2013-9-12,76,70,68,72,67,65,95,90,80,0.00,40.00,0,-264,0,1.37
2013-9-13,72,66,58,65,61,53,94,86,71,0.00,40.00,0,-409,0,0.72
2013-9-14,69,61,56,53,49,47,83,67,49,0.00,40.00,0,-463,0,0.01
2013-9-15,73,57,49,52,45,-100,86,68,34,0.00,40.00,0,-366,0,0.01
2013-9-16,66,58,47,53,46,32,85,66,43,0.00,40.00,0,-256,0,0.03
2013-9-17,68,53,41,46,38,32,86,59,34,0.00,40.00,0,-195,0,0.02
2013-9-18,50,48,47,45,44,43,88,85,80,0.00,40.00,0,-761,0,0.00
2013-9-19,79,64,54,57,51,46,85,65,32,0.00,40.00,0,-149,0,0.00
2013-9-20,79,63,53,55,53,50,90,72,37,0.00,40.00,0,-281,0,0.01
2013-9-21,74,63,53,60,54,50,90,74,49,0.00,40.00,0,-256,0,0.01
2013-9-22,72,63,53,64,49,-100,93,69,37,0.00,40.00,0,-428,0,0.63
2013-9-23,61,52,48,40,37,34,66,57,40,0.00,40.00,0,-388,0,0.06
2013-9-24,61,53,47,43,38,35,70,58,39,0.00,40.00,0,-338,0,0.00
2013-9-25,62,55,47,47,45,42,87,70,52,0.00,40.00,0,-434,0,0.00
2013-9-26,70,55,46,52,45,41,88,70,37,0.00,40.00,0,-359,0,0.00
2013-9-27,71,60,55,53,50,45,83,70,44,0.00,40.00,0,-457,0,0.00
2013-9-28,74,60,51,54,32,-100,91,72,33,0.00,40.00,0,-477,0,0.00
2013-9-29,73,58,52,53,46,-100,87,72,31,0.00,40.00,0,-320,0,0.01
2013-9-30,71,56,47,52,48,43,90,76,47,0.00,40.00,0,-537,0,0.01
2013-10-1,68,60,53,55,54,48,86,80,61,0.00,40.00,0,-473,0,0.00
2013-10-2,80,66,55,57,55,52,91,68,40,0.00,40.00,0,-425,0,0.01
2013-10-3,76,62,53,55,51,43,89,70,31,0.00,40.00,0,-250,0,0.01
2013-10-4,68,60,51,56,52,48,92,77,53,0.00,40.00,0,-342,0,0.00
2013-10-5,65,61,58,56,46,-100,83,61,44,0.00,40.00,0,-454,0,0.00
2013-10-6,59,53,50,53,42,-100,92,72,51,0.00,40.00,0,-489,0,0.12
2013-10-7,72,57,50,65,54,48,93,90,69,0.00,40.00,0,-480,0,0.79
2013-10-8,63,55,46,50,34,-100,80,58,34,0.00,40.00,0,-395,0,0.61
2013-10-9,66,50,39,45,38,-100,92,73,32,0.00,40.00,0,-280,0,0.00
2013-10-10,66,54,43,51,45,40,89,74,39,0.00,40.00,0,-354,0,0.00
2013-10-11,68,56,50,53,49,44,90,77,50,0.00,40.00,0,-315,0,0.00
2013-10-12,56,52,49,51,48,44,91,84,77,0.00,40.00,0,-473,0,0.01
2013-10-13,57,51,44,47,44,41,92,78,58,0.00,40.00,0,-348,0,0.01
2013-10-14,70,53,43,49,43,39,88,72,38,0.00,40.00,0,-250,0,0.00
2013-10-15,65,59,53,52,50,48,84,72,56,0.00,40.00,0,-210,0,0.00
2013-10-16,63,57,51,50,48,46,86,73,53,0.00,40.00,0,-385,0,0.00
2013-10-17,75,59,51,52,49,44,89,72,33,0.00,40.00,0,-411,0,0.00
2013-10-18,64,58,54,53,41,-100,92,69,45,0.00,40.00,0,-170,0,0.27
2013-10-19,66,56,45,44,40,35,84,56,35,0.00,40.00,0,-306,0,0.01
2013-10-20,61,53,49,47,25,-100,82,51,28,0.00,40.00,0,-359,0,0.01
2013-10-21,65,52,41,45,38,34,84,61,38,0.00,40.00,0,-493,0,0.01
2013-10-22,56,51,46,51,43,32,88,73,57,0.00,40.00,0,-341,0,0.06
2013-10-23,57,48,39,36,28,-100,86,54,32,0.00,40.00,0,-402,0,0.05
2013-10-24,48,45,40,33,28,24,68,53,40,0.00,40.00,0,-345,0,0.00
2013-10-25,45,41,37,32,27,20,73,59,37,0.00,40.00,0,-444,0,0.00
2013-10-26,48,42,33,32,24,-100,84,57,39,0.00,40.00,0,-488,0,0.00
2013-10-27,53,47,43,32,20,-100,58,49,33,0.00,40.00,0,-521,0,0.00
2013-10-28,52,44,36,32,25,-100,77,52,39,0.00,40.00,0,-539,0,0.00
2013-10-29,49,36,28,26,10,-100,84,59,19,0.00,40.00,0,-287,0,0.00
2013-10-30,49,39,32,33,29,26,85,68,43,0.00,40.00,0,-243,0,0.00
2013-10-31,59,43,35,55,39,31,93,88,77,0.00,40.00,0,-105,0,0.10
2013-11-1,68,61,58,59,48,-100,90,76,48,0.00,40.00,0,-337,0,0.46
2013-11-2,65,54,44,47,41,37,90,65,36,0.00,40.00,0,-419,0,0.07
2013-11-3,47,39,30,42,15,-100,83,51,26,0.00,40.00,0,-444,0,0.08
2013-11-4,44,33,28,23,-4,-100,76,50,22,0.00,40.00,0,-246,0,0.00
2013-11-5,49,37,27,28,21,-100,83,62,32,0.00,40.00,0,-341,0,0.00
2013-11-6,58,48,37,41,37,30,84,66,51,0.00,40.00,0,-443,0,0.00
2013-11-7,56,51,41,53,42,23,92,73,52,0.00,40.00,0,-293,0,0.11
2013-11-8,43,38,34,25,10,-100,62,49,39,0.00,40.00,0,-417,0,0.01
2013-11-9,40,38,35,22,18,16,50,44,37,0.00,40.00,0,-444,0,0.00
2013-11-10,42,39,34,37,33,22,89,79,51,0.00,40.00,0,-383,0,0.08
2013-11-11,48,41,36,29,26,22,67,55,36,0.00,40.00,0,-407,0,0.01
2013-11-12,44,32,27,31,12,-100,66,51,44,0.00,40.00,0,-368,0,0.03
2013-11-13,32,28,23,14,9,4,60,45,32,0.00,40.00,0,-348,0,0.02
2013-11-14,49,37,30,28,21,15,85,54,37,0.00,40.00,0,-402,0,0.00
2013-11-15,54,40,30,28,12,-100,87,57,22,0.00,40.00,0,-466,0,0.00
2013-11-16,57,41,34,32,22,-100,83,65,21,0.00,40.00,0,-450,0,0.00
2013-11-17,44,39,31,41,36,27,93,89,83,0.00,40.00,0,-458,0,0.09
2013-11-18,64,54,44,56,40,-100,96,67,36,0.00,40.00,0,-475,0,0.47
2013-11-19,44,35,30,28,10,-100,69,45,34,0.00,40.00,0,-333,0,0.01
2013-11-20,42,32,27,18,5,-100,68,42,24,0.00,40.00,0,-241,0,0.00
2013-11-21,47,33,24,24,12,-100,84,56,17,0.00,40.00,0,-352,0,0.00
2013-11-22,38,35,32,32,28,25,80,75,70,0.00,40.00,0,-476,0,0.01
2013-11-30,28,28,28,19,19,19,68,68,68,0.00,40.00,0,0,0,0.00
2013-12-1,35,32,29,32,26,17,92,78,60,0.00,40.00,121,-190,0,0.00
2013-12-2,36,36,35,32,32,32,88,88,87,0.00,40.00,0,-999,0,0.00
2013-12-3,36,36,36,-100,-100,-100,0,0,100,0.00,40.00,0,-999,0,0.00
2013-12-4,40,35,30,27,17,-100,80,59,52,0.00,40.00,39,-200,0,0.00
2013-12-5,36,33,29,34,17,-100,93,76,71,0.00,40.00,39,-236,0,0.05
2013-12-6,45,41,36,41,20,-100,94,76,44,0.00,40.00,87,-217,0,0.11
2013-12-7,36,34,33,22,-30,-100,58,36,47,0.00,40.00,23,-328,0,0.00